Glemsford, United Kingdom
Current Conditions -  °F | °C
As of 12:50 AM on Tuesday 21 Oct 2014 (Local Time) from EGUW Reporting Station
Broken Clouds Broken Clouds  
Wind Chill: 54°   Ceiling: 5000
Heat Index: 54°   Visibility: 6mi
Dew Point: 50°   Wind: 12mph
Humidity: 88%   Direction: 210°SSW
Pressure: 29.8"   Gusts: NA
Location:  52.1°N, 0.67°E
Report Text: EGUW 202350Z AUTO 21010KT 9999 FEW016/// BKN050/// BKN180/// 12/10 Q1009
Loading
Personal Weather Stations






























Interactive Weather Map New forecast layout! Learn more

10-Day Weather Forecast

Advertisements
Track Severe Weather on mobile